Terminal Aerodrome Forecast
Issued by NWS Charleston, WV

Current Version | Previous Version | Graphics & Text | Print | Product List | Glossary On
Versions: 1 2 3 4 5 6 7 8 9 10 11 12 13 14 15 16 17 18 19 20 21 22 23 24 25 26 27 28 29
000
FTUS41 KRLX 210539
TAFCRW
TAF
KCRW 210539Z 2106/2206 00000KT P6SM SCT040 BKN070
     FM210800 03004KT 6SM SHRA BKN060
     FM211000 01004KT P6SM BKN035
     FM211200 VRB03KT P6SM BKN020
     FM211700 30004KT P6SM BKN025
     FM212300 32006KT P6SM SCT025=

USA.gov is the U.S. government's official web portal to all federal, state and local government web resources and services.